Time;durP1;ratioP1;P1;durP2;ratioP2;P2;SDS_P1;SDS_P2;PMS_P1;PMS_P2;Temp;Humidity;BMP_temperature;BMP_pressure;BME280_temperature;BME280_humidity;BME280_pressure;Samples;Min_cycle;Max_cycle;Signal;HPM_P1;HPM_P2
2024/04/23 00:02:07;;;;;;;9.63;6.88;;;205.40;2252.80;;;;;;5420773;26;19999;-74
2024/04/23 00:04:35;;;;;;;9.25;6.60;;;205.40;2252.80;;;;;;5453125;26;19991;-75
2024/04/23 00:07:01;;;;;;;9.80;6.93;;;205.30;2252.80;;;;;;5452737;26;20001;-74
2024/04/23 00:09:28;;;;;;;9.80;6.60;;;205.20;2252.80;;;;;;5452866;26;20009;-74
2024/04/23 00:11:54;;;;;;;10.70;6.97;;;205.20;2252.80;;;;;;5449680;26;20003;-74
2024/04/23 00:14:20;;;;;;;11.05;6.95;;;205.20;2252.80;;;;;;5416659;26;20011;-74
2024/04/23 00:17:05;;;;;;;9.80;7.15;;;205.10;2252.80;;;;;;5416644;26;20011;-74
2024/04/23 00:19:31;;;;;;;10.38;7.15;;;205.10;2252.80;;;;;;5451695;26;20014;-74
2024/04/23 00:21:57;;;;;;;9.65;6.90;;;205.10;2252.80;;;;;;5450607;26;20007;-74
2024/04/23 00:24:23;;;;;;;11.63;7.22;;;205.10;2252.80;;;;;;5447303;26;20343;-74
2024/04/23 00:26:52;;;;;;;11.30;7.35;;;204.90;2252.80;;;;;;5452549;26;19991;-74
2024/04/23 00:29:18;;;;;;;10.02;6.57;;;204.80;2252.80;;;;;;5452558;26;20449;-74
2024/04/23 00:31:44;;;;;;;9.95;7.20;;;204.80;2252.80;;;;;;5452033;26;19986;-74
2024/04/23 00:34:09;;;;;;;10.38;7.13;;;204.80;2252.80;;;;;;5452545;26;20013;-74
2024/04/23 00:36:35;;;;;;;11.25;7.65;;;204.80;2252.80;;;;;;5433510;26;20616;-74
2024/04/23 00:39:01;;;;;;;10.15;7.00;;;180.10;2252.80;;;;;;5416943;26;19999;-73
2024/04/23 00:41:27;;;;;;;11.68;8.00;;;180.00;2252.80;;;;;;5416801;26;20003;-74
2024/04/23 00:43:53;;;;;;;11.23;7.60;;;180.00;2252.80;;;;;;5418480;26;19999;-75
2024/04/23 00:46:22;;;;;;;12.93;8.27;;;180.00;2252.80;;;;;;5416431;26;20036;-74
2024/04/23 00:48:48;;;;;;;10.77;7.70;;;180.00;2252.80;;;;;;5415874;26;19992;-74
2024/04/23 00:51:14;;;;;;;14.45;8.60;;;179.90;2252.80;;;;;;5416343;26;20000;-74
2024/04/23 00:53:39;;;;;;;13.07;8.43;;;179.80;2252.80;;;;;;5416360;26;19996;-72
2024/04/23 00:56:06;;;;;;;12.68;8.20;;;179.80;2252.80;;;;;;5452073;26;19995;-74
2024/04/23 00:58:32;;;;;;;12.07;8.35;;;179.80;2252.80;;;;;;5452256;26;19998;-74
2024/04/23 01:00:59;;;;;;;13.70;8.82;;;179.70;2252.80;;;;;;5451936;26;20039;-74
2024/04/23 01:03:25;;;;;;;13.07;8.63;;;179.70;2252.80;;;;;;5451778;26;20485;-74
2024/04/23 01:05:50;;;;;;;13.77;8.35;;;179.50;2252.80;;;;;;5418937;26;20073;-74
2024/04/23 01:08:16;;;;;;;11.15;7.80;;;179.50;2252.80;;;;;;5415924;26;20331;-74
2024/04/23 01:10:42;;;;;;;11.93;7.60;;;179.40;2252.80;;;;;;5415761;26;20069;-74
2024/04/23 01:13:08;;;;;;;11.48;7.95;;;179.40;2252.80;;;;;;5416014;26;20007;-74
2024/04/23 01:15:36;;;;;;;12.30;7.93;;;179.50;2252.80;;;;;;5417607;26;20027;-74
2024/04/23 01:18:04;;;;;;;13.20;7.80;;;179.40;2252.80;;;;;;5428455;26;20333;-74
2024/04/23 01:20:30;;;;;;;11.00;7.05;;;;;;;;;;5451753;26;20010;-74
2024/04/23 01:23:06;;;;;;;11.18;7.60;;;;;;;;;;5441718;26;20004;-74
2024/04/23 01:25:33;;;;;;;11.88;7.65;;;;;;;;;;5445459;26;20009;-74
2024/04/23 01:27:59;;;;;;;11.68;7.53;;;179.50;2252.80;;;;;;5452037;26;20040;-74
2024/04/23 01:30:25;;;;;;;11.40;7.28;;;179.40;2252.80;;;;;;5451437;26;20075;-73
2024/04/23 01:32:52;;;;;;;11.13;7.35;;;179.20;2252.80;;;;;;5451711;26;19991;-74
2024/04/23 01:35:19;;;;;;;12.30;7.65;;;179.20;2252.80;;;;;;5422337;26;19999;-73
2024/04/23 01:37:51;;;;;;;12.75;7.75;;;154.50;2252.80;;;;;;5415841;26;19995;-75
2024/04/23 01:40:17;;;;;;;12.85;7.90;;;179.20;2252.80;;;;;;5415798;26;20404;-73
2024/04/23 01:42:44;;;;;;;11.57;7.43;;;154.50;2252.80;;;;;;5415542;26;20000;-73
2024/04/23 01:45:15;;;;;;;12.88;7.80;;;154.40;2252.80;;;;;;5441974;26;19994;-73
2024/04/23 01:47:44;;;;;;;12.95;7.78;;;154.40;2252.80;;;;;;5451588;26;19995;-73
2024/04/23 01:50:10;;;;;;;11.88;7.40;;;179.20;2252.80;;;;;;5451359;26;20437;-73
2024/04/23 01:52:35;;;;;;;11.30;7.38;;;154.40;2252.80;;;;;;5450897;26;20003;-73
2024/04/23 01:55:01;;;;;;;11.70;7.63;;;154.40;2252.80;;;;;;5447928;26;20425;-73
2024/04/23 01:57:27;;;;;;;11.35;7.13;;;154.30;2252.80;;;;;;5451321;26;20329;-72
2024/04/23 02:00:04;;;;;;;11.90;7.80;;;154.30;2252.80;;;;;;5449530;26;19995;-73
2024/04/23 02:02:30;;;;;;;14.13;8.00;;;;;;;;;;5449444;26;20075;-74
2024/04/23 02:04:56;;;;;;;12.90;8.40;;;;;;;;;;5452522;26;20436;-75
2024/04/23 02:07:23;;;;;;;12.95;8.40;;;;;;;;;;5454056;26;20001;-74
2024/04/23 02:09:49;;;;;;;14.30;8.77;;;;;;;;;;5421559;26;21861;-75
2024/04/23 02:12:15;;;;;;;19.27;8.98;;;;;;;;;;5453737;26;20027;-74
2024/04/23 02:14:41;;;;;;;17.58;9.43;;;;;;;;;;5452267;26;20003;-75
2024/04/23 02:17:14;;;;;;;14.68;9.45;;;;;;;;;;5453671;26;19994;-75
2024/04/23 02:19:40;;;;;;;15.45;9.63;;;;;;;;;;5453688;26;19999;-75
2024/04/23 02:22:06;;;;;;;15.82;9.90;;;;;;;;;;5452851;26;19998;-74
2024/04/23 02:24:32;;;;;;;14.95;8.93;;;;;;;;;;5437783;26;20002;-75
2024/04/23 02:26:58;;;;;;;14.55;9.68;;;;;;;;;;5453211;26;19998;-74
2024/04/23 02:29:24;;;;;;;13.82;9.00;;;;;;;;;;5454027;26;20440;-75
2024/04/23 02:31:49;;;;;;;13.93;8.98;;;154.30;1894.40;;;;;;5421794;26;19999;-74
2024/04/23 02:34:15;;;;;;;14.60;9.10;;;154.00;2252.80;;;;;;5429651;26;20002;-74
2024/04/23 02:36:41;;;;;;;14.27;9.43;;;;;;;;;;5452530;26;20009;-75
2024/04/23 02:39:08;;;;;;;15.65;9.40;;;;;;;;;;5452235;26;20341;-75
2024/04/23 02:41:36;;;;;;;17.52;8.77;;;;;;;;;;5452823;26;20003;-75
2024/04/23 02:44:08;;;;;;;15.55;9.40;;;;;;;;;;5443036;26;19995;-74
2024/04/23 02:46:35;;;;;;;16.02;9.55;;;;;;;;;;5417107;26;20458;-76
2024/04/23 02:49:00;;;;;;;15.68;10.48;;;154.30;1945.60;;;;;;5416494;26;20003;-72
2024/04/23 02:51:26;;;;;;;16.27;9.90;;;154.00;2252.80;;;;;;5416614;26;19999;-74
2024/04/23 02:53:52;;;;;;;16.88;10.68;;;154.00;2252.80;;;;;;5421138;26;19999;-74
2024/04/23 02:56:17;;;;;;;16.63;10.00;;;153.90;2252.80;;;;;;5452647;26;19999;-75
2024/04/23 02:58:44;;;;;;;17.38;10.82;;;153.80;2252.80;;;;;;5452017;26;20091;-74
2024/04/23 03:01:10;;;;;;;14.98;9.48;;;153.80;2252.80;;;;;;5416950;26;20434;-74
2024/04/23 03:03:35;;;;;;;16.75;10.00;;;153.80;2252.80;;;;;;5418863;26;20010;-75
2024/04/23 03:06:01;;;;;;;16.77;9.70;;;153.80;2252.80;;;;;;5452545;26;19999;-74
2024/04/23 03:08:27;;;;;;;15.52;9.38;;;153.80;2252.80;;;;;;5452397;26;19995;-75
2024/04/23 03:10:53;;;;;;;17.70;10.07;;;153.80;2252.80;;;;;;5452605;26;19994;-75
2024/04/23 03:13:18;;;;;;;17.35;9.98;;;153.70;2252.80;;;;;;5421339;26;20009;-75
2024/04/23 03:15:44;;;;;;;16.13;9.95;;;153.80;2227.20;;;;;;5439989;26;19996;-75
2024/04/23 03:18:13;;;;;;;18.38;10.45;;;153.80;2252.80;;;;;;5421986;26;20009;-74
2024/04/23 03:20:38;;;;;;;18.67;10.68;;;153.80;2252.80;;;;;;5419437;26;20014;-74
2024/04/23 03:23:04;;;;;;;16.13;9.57;;;153.80;2252.80;;;;;;5420048;26;19996;-75
2024/04/23 03:25:30;;;;;;;17.25;10.70;;;153.70;2252.80;;;;;;5449742;26;20010;-74
2024/04/23 03:28:00;;;;;;;17.52;10.90;;;153.70;2252.80;;;;;;5455036;26;19998;-75
2024/04/23 03:30:26;;;;;;;18.30;10.85;;;153.70;2252.80;;;;;;5455084;26;20013;-75
2024/04/23 03:32:52;;;;;;;18.83;10.38;;;;;;;;;;5455264;26;20014;-74
2024/04/23 03:35:21;;;;;;;18.92;10.77;;;;;;;;;;5427729;26;20003;-75
2024/04/23 03:37:47;;;;;;;19.05;11.05;;;;;;;;;;5387687;26;20379;-75
2024/04/23 03:40:13;;;;;;;19.35;11.25;;;;;;;;;;5418510;26;20442;-74
2024/04/23 03:42:39;;;;;;;21.25;11.85;;;;;;;;;;5441082;26;20002;-75
2024/04/23 03:45:06;;;;;;;19.98;11.25;;;;;;;;;;5425004;26;20000;-75
2024/04/23 03:47:32;;;;;;;22.10;12.32;;;;;;;;;;5419188;26;20513;-75
2024/04/23 03:49:58;;;;;;;19.67;11.40;;;;;;;;;;5420235;26;19995;-74
2024/04/23 03:52:26;;;;;;;21.65;12.18;;;;;;;;;;5441194;26;20002;-75
2024/04/23 03:54:55;;;;;;;20.77;11.18;;;;;;;;;;5434390;26;20541;-74
2024/04/23 03:57:21;;;;;;;21.00;12.05;;;;;;;;;;5419031;26;20000;-75
2024/04/23 03:59:50;;;;;;;19.85;12.05;;;;;;;;;;5426682;26;19999;-74
2024/04/23 04:07:46;;;;;;;19.88;12.57;;;;;;;;;;5450279;26;20059;-74
2024/04/23 04:10:12;;;;;;;22.85;12.40;;;;;;;;;;5452639;26;20072;-74
2024/04/23 04:12:38;;;;;;;23.48;12.88;;;;;;;;;;5451621;26;20014;-75
2024/04/23 04:15:04;;;;;;;22.13;12.93;;;;;;;;;;5453346;26;20004;-74
2024/04/23 04:17:31;;;;;;;23.98;13.07;;;;;;;;;;5453958;26;20002;-73
2024/04/23 04:19:57;;;;;;;21.27;12.38;;;;;;;;;;5454437;26;20343;-75
2024/04/23 04:22:23;;;;;;;22.85;12.75;;;;;;;;;;5447969;26;20388;-75
2024/04/23 04:24:49;;;;;;;24.13;13.98;;;;;;;;;;5450226;26;20012;-75
2024/04/23 04:27:18;;;;;;;23.77;13.52;;;;;;;;;;5453556;26;20014;-75
2024/04/23 04:29:44;;;;;;;25.23;14.15;;;;;;;;;;5453575;26;19999;-75
2024/04/23 04:32:10;;;;;;;22.27;12.77;;;;;;;;;;5442359;26;20077;-74
2024/04/23 04:34:36;;;;;;;22.92;13.85;;;;;;;;;;5451754;26;19995;-74
2024/04/23 04:37:02;;;;;;;24.55;13.50;;;;;;;;;;5437054;26;20000;-75
2024/04/23 04:39:36;;;;;;;25.63;13.77;;;;;;;;;;5454878;26;20441;-73
2024/04/23 04:42:02;;;;;;;24.45;13.63;;;;;;;;;;5453746;26;20010;-75
2024/04/23 04:44:28;;;;;;;23.05;13.07;;;;;;;;;;5425894;26;20377;-74
2024/04/23 04:46:54;;;;;;;22.98;13.25;;;;;;;;;;5418011;26;19995;-73
2024/04/23 04:49:23;;;;;;;22.67;13.50;;;;;;;;;;5437346;26;20009;-75
2024/04/23 04:51:49;;;;;;;24.98;14.55;;;;;;;;;;5443946;26;20009;-74
2024/04/23 04:54:15;;;;;;;24.65;14.38;;;;;;;;;;5454305;26;20002;-74
2024/04/23 04:56:41;;;;;;;27.23;14.85;;;;;;;;;;5453389;26;20337;-75
2024/04/23 04:59:07;;;;;;;25.83;15.95;;;;;;;;;;5454015;26;20023;-75
2024/04/23 05:01:34;;;;;;;22.40;13.82;;;179.30;2252.80;;;;;;5453527;26;20006;-75
2024/04/23 05:04:03;;;;;;;23.95;14.38;;;;;;;;;;5451119;26;20003;-72
2024/04/23 05:06:28;;;;;;;23.15;13.50;;;179.40;2252.80;;;;;;5451406;26;20461;-74
2024/04/23 05:08:57;;;;;;;20.80;13.05;;;179.50;2252.80;;;;;;5452320;26;20018;-74
2024/04/23 05:11:23;;;;;;;22.80;13.45;;;179.30;2252.80;;;;;;5448249;26;20014;-74
2024/04/23 05:13:49;;;;;;;24.23;13.00;;;154.50;2252.80;;;;;;5424190;26;20322;-75
2024/04/23 05:16:14;;;;;;;21.83;12.98;;;179.20;2252.80;;;;;;5446928;26;20014;-73
2024/04/23 05:18:46;;;;;;;22.80;13.75;;;179.30;2252.80;;;;;;5453337;26;20449;-75
2024/04/23 05:21:12;;;;;;;23.38;12.90;;;154.50;2252.80;;;;;;5453504;26;19999;-72
2024/04/23 05:23:38;;;;;;;21.63;12.48;;;179.40;2252.80;;;;;;5453958;26;20013;-74
2024/04/23 05:26:03;;;;;;;18.88;11.98;;;179.50;2252.80;;;;;;5446927;26;19999;-73
2024/04/23 05:28:29;;;;;;;22.60;12.70;;;179.50;2252.80;;;;;;5453527;26;19999;-75
2024/04/23 05:33:43;;;;;;;19.90;12.13;;;179.70;2252.80;;;;;;5452308;26;20006;-73
2024/04/23 05:36:09;;;;;;;22.25;12.13;;;180.00;2252.80;;;;;;5451749;26;20011;-72
2024/04/23 05:38:34;;;;;;;20.83;11.82;;;179.80;2252.80;;;;;;5451965;26;20360;-73
2024/04/23 05:41:03;;;;;;;21.40;12.38;;;179.90;2252.80;;;;;;5451575;26;20003;-74
2024/04/23 05:43:29;;;;;;;18.45;11.70;;;180.00;2252.80;;;;;;5439910;26;20014;-74
2024/04/23 05:45:54;;;;;;;19.77;11.52;;;204.80;2252.80;;;;;;5453103;26;20003;-74
2024/04/23 05:48:58;;;;;;;22.08;12.88;;;205.10;2252.80;;;;;;5453392;26;19995;-73
2024/04/23 05:52:01;;;;;;;23.48;12.95;;;205.30;2252.80;;;;;;5439016;26;20026;-74
2024/04/23 05:55:04;;;;;;;21.05;12.80;;;205.10;2252.80;;;;;;5431234;26;20017;-72
2024/04/23 05:57:33;;;;;;;21.30;12.57;;;205.20;2252.80;;;;;;5436885;26;20013;-74
2024/04/23 05:59:59;;;;;;;20.40;12.50;;;205.30;2252.80;;;;;;5450980;26;20018;-74
2024/04/23 06:02:25;;;;;;;22.70;13.77;;;205.60;2252.80;;;;;;5441640;26;19998;-73
2024/04/23 06:04:51;;;;;;;19.17;12.43;;;205.60;2252.80;;;;;;5449399;26;19995;-72
2024/04/23 06:07:17;;;;;;;19.70;12.38;;;;;;;;;;5450264;26;19995;-73
2024/04/23 06:09:43;;;;;;;18.35;11.93;;;230.80;2252.80;;;;;;5419792;26;20368;-74
2024/04/23 06:12:09;;;;;;;20.98;12.50;;;230.60;2252.80;;;;;;5451540;26;19999;-75
2024/04/23 06:14:40;;;;;;;18.95;12.15;;;230.70;2252.80;;;;;;5451389;26;20838;-75
2024/04/23 06:17:25;;;;;;;20.88;11.57;;;;;;;;;;5445599;26;19999;-73
2024/04/23 06:19:51;;;;;;;;;;;231.30;2252.80;;;;;;5439355;26;20007;-72
2024/04/23 06:22:22;;;;;;;20.15;13.82;;;231.30;2252.80;;;;;;5449366;26;19924;-72
2024/04/23 06:24:50;;;;;;;19.10;12.45;;;231.30;2252.80;;;;;;5452686;26;20003;-74
2024/04/23 06:27:23;;;;;;;17.33;11.40;;;256.20;2252.80;;;;;;5450835;26;20025;-72
2024/04/23 06:29:50;;;;;;;17.50;11.85;;;256.20;2252.80;;;;;;5431198;26;19999;-74
2024/04/23 06:32:17;;;;;;;18.45;11.57;;;256.80;2252.80;;;;;;5428979;26;20007;-73
2024/04/23 06:34:47;;;;;;;20.23;12.23;;;256.80;2252.80;;;;;;5443642;26;20050;-73
2024/04/23 06:37:13;;;;;;;19.40;11.70;;;281.60;2278.40;;;;;;5423884;26;20015;-75
2024/04/23 06:39:40;;;;;;;18.67;11.65;;;281.80;2278.40;;;;;;5439979;26;20018;-74
2024/04/23 06:42:06;;;;;;;16.98;11.43;;;282.40;2278.40;;;;;;5439234;26;20045;-75
2024/04/23 06:44:34;;;;;;;16.23;10.45;;;307.30;2304.00;;;;;;5452241;26;20007;-75
2024/04/23 06:47:00;;;;;;;18.33;10.95;;;307.40;2304.00;;;;;;5453444;26;20009;-75
2024/04/23 06:49:26;;;;;;;18.02;11.70;;;307.30;2304.00;;;;;;5448358;26;20002;-74
2024/04/23 06:51:52;;;;;;;16.67;10.88;;;307.50;2304.00;;;;;;5444920;26;20030;-74
2024/04/23 06:54:18;;;;;;;15.85;10.68;;;308.00;2304.00;;;;;;5425725;26;20064;-74
2024/04/23 06:56:44;;;;;;;16.08;10.75;;;307.80;2304.00;;;;;;5419103;26;20015;-74
2024/04/23 06:59:09;;;;;;;17.00;11.15;;;332.80;2329.60;;;;;;5418530;26;20002;-75
2024/04/23 07:01:35;;;;;;;16.20;10.35;;;332.80;2329.60;;;;;;5418819;26;20012;-73
2024/04/23 07:04:02;;;;;;;15.40;10.27;;;333.00;2329.60;;;;;;5419629;26;19996;-73
2024/04/23 07:06:28;;;;;;;16.02;9.90;;;332.80;2329.60;;;;;;5419648;26;20042;-75
2024/04/23 07:08:54;;;;;;;13.38;9.15;;;333.40;2329.60;;;;;;5418878;26;20064;-75
2024/04/23 07:11:20;;;;;;;13.77;9.10;;;333.00;2329.60;;;;;;5418402;26;20330;-73
2024/04/23 07:13:46;;;;;;;14.23;10.52;;;333.30;2329.60;;;;;;5418694;26;20419;-73
2024/04/23 07:16:15;;;;;;;25.30;9.80;;;333.40;2329.60;;;;;;5418598;26;20007;-75
2024/04/23 07:18:42;;;;;;;15.75;10.70;;;333.70;2329.60;;;;;;5419554;26;20003;-74
2024/04/23 07:21:07;;;;;;;13.75;10.07;;;358.40;2329.60;;;;;;5428292;26;20003;-73
2024/04/23 07:23:33;;;;;;;13.30;9.75;;;333.40;2329.60;;;;;;5436775;26;20003;-75
2024/04/23 07:26:00;;;;;;;17.02;11.07;;;333.70;2329.60;;;;;;5418325;26;20003;-73
2024/04/23 07:28:26;;;;;;;13.23;9.93;;;358.40;2329.60;;;;;;5446112;26;19999;-73
2024/04/23 07:30:52;;;;;;;15.00;9.32;;;358.60;2329.60;;;;;;5454656;26;20002;-74
2024/04/23 07:33:19;;;;;;;14.98;10.20;;;358.80;2329.60;;;;;;5454224;26;20097;-74
2024/04/23 07:35:46;;;;;;;14.80;9.32;;;358.90;2329.60;;;;;;5453136;26;20031;-73
2024/04/23 07:38:12;;;;;;;13.15;9.68;;;359.20;2329.60;;;;;;5452958;26;19995;-73
2024/04/23 07:40:40;;;;;;;16.70;10.48;;;359.30;2329.60;;;;;;5422419;26;20027;-73
2024/04/23 07:43:06;;;;;;;17.23;9.63;;;384.30;2329.60;;;;;;5416378;26;19999;-74
2024/04/23 07:45:35;;;;;;;14.38;9.65;;;384.70;2329.60;;;;;;5437250;26;19999;-73
2024/04/23 07:48:02;;;;;;;15.27;10.00;;;384.30;2329.60;;;;;;5451821;26;19999;-74
2024/04/23 07:50:28;;;;;;;12.85;9.52;;;384.50;2329.60;;;;;;5452226;26;20014;-73
2024/04/23 07:52:54;;;;;;;18.00;11.85;;;384.00;2329.60;;;;;;5452667;26;20010;-73
2024/04/23 07:55:20;;;;;;;15.38;10.45;;;384.30;2329.60;;;;;;5452638;26;20437;-73
2024/04/23 07:57:46;;;;;;;14.60;9.70;;;384.40;2329.60;;;;;;5450244;26;19990;-73
2024/04/23 08:00:13;;;;;;;12.60;9.20;;;384.60;2329.60;;;;;;5452391;26;20076;-75
2024/04/23 08:02:39;;;;;;;14.15;9.75;;;384.80;2329.60;;;;;;5452512;26;19994;-74
2024/04/23 08:05:06;;;;;;;13.38;9.98;;;384.70;2329.60;;;;;;5452423;26;20013;-74
2024/04/23 08:07:32;;;;;;;14.93;10.10;;;384.60;2329.60;;;;;;5452458;26;19999;-74
2024/04/23 08:10:01;;;;;;;15.50;9.68;;;384.90;2329.60;;;;;;5452599;26;19995;-75
2024/04/23 08:12:27;;;;;;;13.48;9.57;;;384.50;2329.60;;;;;;5451591;26;20014;-75
2024/04/23 08:14:55;;;;;;;18.67;12.52;;;384.20;2329.60;;;;;;5451581;26;20003;-75
2024/04/23 08:17:22;;;;;;;15.93;10.38;;;384.80;2329.60;;;;;;5445581;26;20011;-74
2024/04/23 08:19:48;;;;;;;14.38;10.18;;;384.80;2329.60;;;;;;5452664;26;19999;-74
2024/04/23 08:22:14;;;;;;;14.02;9.85;;;;;;;;;;5452110;26;19998;-74
2024/04/23 08:24:40;;;;;;;16.00;9.90;;;;;;;;;;5451851;26;20026;-74
2024/04/23 08:27:06;;;;;;;14.70;9.43;;;;;;;;;;5452228;26;20009;-74
2024/04/23 08:29:32;;;;;;;14.73;10.13;;;;;;;;;;5451808;26;20009;-73
2024/04/23 08:31:59;;;;;;;15.82;9.60;;;;;;;;;;5448402;26;19991;-73
2024/04/23 08:34:25;;;;;;;14.93;10.13;;;;;;;;;;5410837;26;20016;-74
2024/04/23 08:36:51;;;;;;;11.95;9.75;;;;;;;;;;5452029;26;20015;-75
2024/04/23 08:39:17;;;;;;;12.45;9.68;;;;;;;;;;5452063;26;20010;-74
2024/04/23 08:41:47;;;;;;;15.57;9.70;;;;;;;;;;5452891;26;20003;-73
2024/04/23 08:44:13;;;;;;;12.20;8.95;;;;;;;;;;5451629;26;20002;-73
2024/04/23 08:46:40;;;;;;;14.35;9.43;;;409.80;2355.20;;;;;;5451915;26;20001;-74
2024/04/23 08:49:07;;;;;;;13.95;8.70;;;409.70;2355.20;;;;;;5435933;26;20011;-74
2024/04/23 08:51:34;;;;;;;14.38;9.95;;;384.80;2329.60;;;;;;5427078;26;20084;-74
2024/04/23 08:54:00;;;;;;;17.17;10.05;;;384.30;2329.60;;;;;;5414971;26;20041;-74
2024/04/23 08:56:30;;;;;;;13.05;9.52;;;384.20;2329.60;;;;;;5436886;26;20031;-72
2024/04/23 08:58:57;;;;;;;13.48;10.10;;;384.00;2329.60;;;;;;5451491;26;20070;-73
2024/04/23 09:01:37;;;;;;;15.60;10.40;;;384.20;2329.60;;;;;;5451980;26;20001;-73
2024/04/23 09:04:03;;;;;;;13.80;10.02;;;384.20;2329.60;;;;;;5452071;26;20295;-73
2024/04/23 09:06:30;;;;;;;13.32;9.77;;;384.40;2329.60;;;;;;5451542;26;20014;-73
2024/04/23 09:08:58;;;;;;;13.63;10.43;;;384.60;2329.60;;;;;;5451106;26;19999;-72
2024/04/23 09:11:28;;;;;;;13.48;9.80;;;384.70;2329.60;;;;;;5450879;26;19995;-73
2024/04/23 09:13:58;;;;;;;16.08;10.20;;;384.80;2329.60;;;;;;5450819;26;19999;-72
2024/04/23 09:16:24;;;;;;;15.30;10.02;;;384.80;2329.60;;;;;;5451483;26;19999;-72
2024/04/23 09:18:53;;;;;;;13.23;9.90;;;384.80;2329.60;;;;;;5451747;26;20009;-72
2024/04/23 09:21:19;;;;;;;13.75;9.60;;;384.90;2329.60;;;;;;5451614;26;20005;-72
2024/04/23 09:23:45;;;;;;;13.13;9.50;;;384.80;2329.60;;;;;;5451275;26;19995;-73
2024/04/23 09:26:11;;;;;;;13.63;9.40;;;384.80;2329.60;;;;;;5451435;26;20470;-72
2024/04/23 09:28:41;;;;;;;22.25;10.23;;;384.80;2329.60;;;;;;5451127;26;19994;-73
2024/04/23 09:31:07;;;;;;;17.90;9.52;;;384.80;2329.60;;;;;;5451441;26;20071;-72
2024/04/23 09:33:33;;;;;;;15.32;9.82;;;384.60;2329.60;;;;;;5451336;26;20356;-73
2024/04/23 09:36:09;;;;;;;15.75;9.70;;;384.70;2329.60;;;;;;5451581;26;20021;-73
2024/04/23 09:38:35;;;;;;;14.27;9.52;;;384.60;2329.60;;;;;;5451029;26;20013;-72
2024/04/23 09:41:05;;;;;;;16.33;9.90;;;384.70;2329.60;;;;;;5451256;26;20078;-73
2024/04/23 09:43:31;;;;;;;13.52;9.55;;;384.80;2329.60;;;;;;5450725;26;20023;-73
2024/04/23 09:45:57;;;;;;;19.65;10.02;;;384.80;2329.60;;;;;;5450354;26;20477;-73
2024/04/23 09:48:34;;;;;;;12.73;9.63;;;384.90;2329.60;;;;;;5429346;26;20013;-72
2024/04/23 09:51:04;;;;;;;12.45;9.73;;;384.90;2329.60;;;;;;5449557;26;20002;-72
2024/04/23 09:53:37;;;;;;;18.10;9.35;;;409.60;2355.20;;;;;;5450024;26;20450;-73
2024/04/23 09:56:09;;;;;;;14.38;8.85;;;409.60;2355.20;;;;;;5450745;26;20026;-73
2024/04/23 09:58:35;;;;;;;8.02;5.80;;;409.70;2355.20;;;;;;5418944;26;20006;-74
2024/04/23 10:01:01;;;;;;;8.18;5.40;;;384.90;2329.60;;;;;;5450802;26;20006;-73
2024/04/23 10:03:28;;;;;;;10.07;5.30;;;384.90;2329.60;;;;;;5451287;26;19999;-73
2024/04/23 10:06:06;;;;;;;9.13;5.30;;;409.60;2355.20;;;;;;5451029;26;20072;-74
2024/04/23 10:08:55;;;;;;;11.57;5.60;;;409.70;2355.20;;;;;;5451025;26;20325;-74
2024/04/23 10:11:41;;;;;;;11.50;6.60;;;409.80;2355.20;;;;;;5450759;26;20011;-72
2024/04/23 10:14:23;;;;;;;10.45;8.43;;;409.80;2355.20;;;;;;5450893;26;20383;-73
2024/04/23 10:17:02;;;;;;;12.68;8.93;;;409.80;2355.20;;;;;;5450446;26;20441;-72
2024/04/23 10:19:29;;;;;;;11.90;9.52;;;409.80;2355.20;;;;;;5450548;26;20013;-73
2024/04/23 10:22:00;;;;;;;13.98;8.90;;;409.90;2355.20;;;;;;5449636;26;20001;-73
2024/04/23 10:24:26;;;;;;;12.38;9.05;;;409.80;2355.20;;;;;;5418992;26;19995;-73
2024/04/23 10:26:52;;;;;;;13.95;9.23;;;409.60;2355.20;;;;;;5450581;26;19995;-73
2024/04/23 10:29:19;;;;;;;13.38;9.70;;;409.60;2355.20;;;;;;5450269;26;20453;-73
2024/04/23 10:31:45;;;;;;;40.55;10.00;;;409.60;2355.20;;;;;;5450296;26;20010;-73
2024/04/23 10:34:15;;;;;;;14.40;7.97;;;409.60;2355.20;;;;;;5449120;26;20315;-73
2024/04/23 10:36:44;;;;;;;11.30;6.32;;;409.70;2355.20;;;;;;5448561;26;20142;-74
2024/04/23 10:39:12;;;;;;;10.80;5.50;;;409.80;2355.20;;;;;;5450755;26;19999;-74
2024/04/23 10:41:38;;;;;;;10.00;5.25;;;409.80;2355.20;;;;;;5449633;26;19994;-74
2024/04/23 10:44:07;;;;;;;7.40;5.45;;;409.90;2355.20;;;;;;5434904;26;20003;-74
2024/04/23 10:46:36;;;;;;;9.10;5.40;;;409.90;2355.20;;;;;;5448990;26;20010;-75
2024/04/23 10:49:15;;;;;;;7.70;5.15;;;409.80;2355.20;;;;;;5451660;26;20030;-74
2024/04/23 10:51:47;;;;;;;11.88;7.70;;;409.90;2355.20;;;;;;5448537;26;20006;-75
2024/04/23 10:54:15;;;;;;;13.13;8.32;;;409.90;2355.20;;;;;;5450774;26;20003;-75
2024/04/23 10:56:41;;;;;;;12.15;8.13;;;409.90;2355.20;;;;;;5451299;26;20009;-74
2024/04/23 10:59:16;;;;;;;11.75;8.82;;;409.80;2355.20;;;;;;5446803;26;20079;-74
2024/04/23 11:02:05;;;;;;;11.57;8.05;;;409.80;2355.20;;;;;;5449430;26;20023;-74
2024/04/23 11:04:34;;;;;;;15.98;7.75;;;409.80;2355.20;;;;;;5449762;26;20003;-71
2024/04/23 11:07:04;;;;;;;10.77;7.72;;;409.70;2355.20;;;;;;5450075;26;20028;-72
2024/04/23 11:09:43;;;;;;;10.73;8.32;;;384.90;2329.60;;;;;;5449689;26;19995;-72
2024/04/23 11:12:25;;;;;;;16.48;8.57;;;409.70;2355.20;;;;;;5427151;26;20072;-72
2024/04/23 11:14:52;;;;;;;13.63;8.13;;;409.80;2355.20;;;;;;5441930;26;20050;-72
2024/04/23 11:17:18;;;;;;;12.43;8.55;;;409.70;2355.20;;;;;;5449686;26;20003;-75
2024/04/23 11:19:48;;;;;;;14.80;9.23;;;409.70;2355.20;;;;;;5451475;26;20010;-76
2024/04/23 11:22:16;;;;;;;12.40;8.93;;;409.80;2355.20;;;;;;5426710;26;20337;-75
2024/04/23 11:24:45;;;;;;;127.38;18.00;;;409.90;2355.20;;;;;;5450909;26;19999;-76
2024/04/23 11:27:13;;;;;;;14.40;7.95;;;409.90;2355.20;;;;;;5450434;26;19999;-75
2024/04/23 11:29:41;;;;;;;10.63;7.85;;;409.90;2355.20;;;;;;5412554;26;20377;-75
2024/04/23 11:32:08;;;;;;;11.30;8.10;;;409.90;2355.20;;;;;;5442993;26;20018;-74
2024/04/23 11:34:35;;;;;;;12.27;7.32;;;409.90;2355.20;;;;;;5418589;26;20674;-74
2024/04/23 11:37:01;;;;;;;10.32;7.50;;;409.90;2355.20;;;;;;5418544;26;20000;-75
2024/04/23 11:39:27;;;;;;;9.77;6.00;;;410.00;2355.20;;;;;;5418600;26;20125;-74
2024/04/23 11:41:54;;;;;;;9.40;5.38;;;410.20;2355.20;;;;;;5418344;26;19991;-76
2024/04/23 11:44:27;;;;;;;8.90;4.90;;;410.10;2355.20;;;;;;5417549;26;20035;-75
2024/04/23 11:46:57;;;;;;;10.20;5.28;;;410.10;2355.20;;;;;;5418756;26;20433;-75
2024/04/23 11:49:26;;;;;;;8.02;5.30;;;410.10;2355.20;;;;;;5391406;26;19999;-76
2024/04/23 11:51:56;;;;;;;8.43;5.40;;;410.20;2355.20;;;;;;5468712;26;19998;-75
2024/04/23 11:54:24;;;;;;;13.45;5.80;;;410.10;2355.20;;;;;;5457591;26;20030;-76
2024/04/23 11:56:52;;;;;;;8.55;4.85;;;409.80;2355.20;;;;;;5460737;26;20080;-75
2024/04/23 11:59:20;;;;;;;8.68;4.80;;;410.10;2355.20;;;;;;5453520;26;19995;-75
2024/04/23 12:01:49;;;;;;;9.35;4.80;;;410.10;2355.20;;;;;;5452704;26;20113;-73
2024/04/23 12:04:18;;;;;;;10.43;5.00;;;410.10;2355.20;;;;;;5448353;26;20079;-76
2024/04/23 12:06:47;;;;;;;6.97;4.55;;;410.10;2355.20;;;;;;5450056;26;20014;-74
2024/04/23 12:09:14;;;;;;;7.53;4.32;;;410.10;2355.20;;;;;;5455635;26;19991;-72
2024/04/23 12:11:40;;;;;;;11.02;4.80;;;410.10;2355.20;;;;;;5453092;26;20033;-72
2024/04/23 12:14:10;;;;;;;7.35;4.50;;;410.20;2355.20;;;;;;5453192;26;20003;-75
2024/04/23 12:16:40;;;;;;;6.75;4.47;;;410.40;2355.20;;;;;;5452803;26;20010;-75
2024/04/23 12:19:06;;;;;;;6.43;3.83;;;410.40;2355.20;;;;;;5453933;26;20030;-75
2024/04/23 12:21:49;;;;;;;9.55;3.88;;;410.40;2355.20;;;;;;5453319;26;19995;-77
2024/04/23 12:24:16;;;;;;;16.58;4.82;;;410.40;2355.20;;;;;;5451817;26;20054;-76
2024/04/23 12:26:45;;;;;;;7.07;3.72;;;410.50;2355.20;;;;;;5447948;26;20716;-73
2024/04/23 12:29:11;;;;;;;8.02;3.90;;;435.30;2355.20;;;;;;5453909;26;20015;-75
2024/04/23 12:31:38;;;;;;;6.93;3.60;;;410.50;2355.20;;;;;;5452072;26;20040;-72
2024/04/23 12:34:03;;;;;;;6.55;3.50;;;410.50;2355.20;;;;;;5452837;26;20276;-73
2024/04/23 12:36:29;;;;;;;6.47;3.50;;;435.40;2355.20;;;;;;5453377;26;20450;-75
2024/04/23 12:38:55;;;;;;;7.60;3.72;;;435.30;2355.20;;;;;;5454055;26;20453;-77
2024/04/23 12:41:23;;;;;;;7.13;3.85;;;435.20;2355.20;;;;;;5453876;26;20003;-77
2024/04/23 12:43:50;;;;;;;6.13;3.42;;;410.50;2355.20;;;;;;5455451;26;20003;-78
2024/04/23 12:46:17;;;;;;;9.23;3.50;;;435.20;2355.20;;;;;;5490153;26;20004;-76